Pardubice, Czech Republic
Current Conditions -  °F | °C
As of 1:00 AM on Thursday 18 Dec 2014 (Local Time) from LKPD Reporting Station
Overcast Overcast  
Wind Chill: 33°   Ceiling: 2700
Heat Index: 39°   Visibility: 6mi
Dew Point: 37°   Wind: 9mph
Humidity: 93%   Direction: 250°WSW
Pressure: 29.8"   Gusts: NA
Location:  50.03°N, 15.77°E
Report Text: LKPD 172300Z 25008KT 9999 SCT017 OVC027 04/03 Q1009
Loading
Personal Weather Stations






























Interactive Weather Map New forecast layout! Learn more

10-Day Weather Forecast

Advertisements
Track Severe Weather on mobile